メインページ
METAR-TAF:

METAR-TAF

空港 :

ヨハネスブルグ, 南アフリカ共和国

O・R・タンボ国際空港

緯度: 26-08S, 経度: 028-14E, 海抜: 1694m

現時点の気象観測

当レポートは46分前の01:00(UTC)に作成
北/北東の風 8kt
気温 17°C
湿度 68%
気圧 1023 hPa
視程10km以上
1,500メートル以下は雲なし、積乱雲なし

METAR: FAOR 180100Z 03008KT CAVOK 17/11 Q1023 NOSIG

時間: 03:46 (01:46 UTC)

予報

当レポートは3時間46分前の22:00(UTC)に作成
予報は18日の 00時(UTC)から 19日の 06時(UTC)まで有効
北東の風 6kt
視程10km以上
1,500メートル以下は雲なし、積乱雲なし
18日の 04時(UTC)から 18日の 06時(UTC)まで徐々に
高度1500ftの雲は散在している
18日の 10時(UTC)から 18日の 12時(UTC)まで徐々に
高度4500ftの雲は散在している
18日の 16時(UTC)から 18日の 18時(UTC)まで徐々に
東/北東の風 13kt
視程10km以上
1,500メートル以下は雲なし、積乱雲なし
18日の 21時(UTC)から 18日の 23時(UTC)まで徐々に
の風 5kt

TAF: FAOR 172200Z 1800/1906 04006KT CAVOK BECMG 1804/1806 SCT015 BECMG 1810/1812 SCT045 BECMG 1816/1818 06013KT CAVOK BECMG 1821/1823 01005KT TX29/1814Z TN17/1803Z

4,000以上の空港の気象観測と天気予報(METAR報とTAF報)

利用可能な観測所は地図上に黄色い丸と赤い丸で示す。

丸の上にカーソルを重ねると観測所名を参照できる。

次にクリックすると気象観測と天気予報を参照できる。

マップの切り替え:黒色「×」印の緑ボタンをクリックして拡大、「-」印の緑ボタンをクリックして縮小、緑色の三角印をクリックして隣りの地図に切り替え


METAR-TAF: